Time;durP1;ratioP1;P1;durP2;ratioP2;P2;SDS_P1;SDS_P2;PMS_P1;PMS_P2;Temp;Humidity;BMP_temperature;BMP_pressure;BME280_temperature;BME280_humidity;BME280_pressure;Samples;Min_cycle;Max_cycle;Signal;HPM_P1;HPM_P2
2021/12/28 00:01:48;;;;;;;;;;;;;;;2.28;61.57;100316.62;117305;1185;23524;-60
2021/12/28 00:04:17;;;;;;;;;;;;;;;2.27;61.51;100312.77;117379;1188;21851;-59
2021/12/28 00:06:45;;;;;;;;;;;;;;;2.27;61.53;100314.34;117432;1183;21869;-58
2021/12/28 00:09:13;;;;;;;;;;;;;;;2.31;61.52;100310.63;117370;1183;23416;-59
2021/12/28 00:11:42;;;;;;;;;;;;;;;2.34;61.42;100304.80;117408;1183;21843;-59
2021/12/28 00:14:10;;;;;;;;;;;;;;;2.36;61.48;100299.65;117471;1183;22787;-59
2021/12/28 00:19:25;;;;;;;;;;;;;;;2.38;61.46;100298.98;117382;1185;24143;-60
2021/12/28 00:21:53;;;;;;;;;;;;;;;2.39;61.49;100295.70;117290;1184;21831;-63
2021/12/28 00:24:21;;;;;;;;;;;;;;;2.40;61.52;100293.13;117321;1185;23453;-60
2021/12/28 00:26:49;;;;;;;;;;;;;;;2.42;61.51;100290.92;117348;1184;21848;-64
2021/12/28 00:29:17;;;;;;;;;;;;;;;2.42;61.58;100285.91;117228;1186;21844;-60
2021/12/28 00:31:54;;;;;;;;;;;;;;;2.41;61.48;100289.69;117343;1182;23453;-60
2021/12/28 00:34:22;;;;;;;;;;;;;;;2.40;61.71;100283.61;117373;1182;23428;-60
2021/12/28 00:36:50;;;;;;;;;;;;;;;2.41;61.48;100278.60;117291;1182;22319;-60
2021/12/28 00:39:18;;;;;;;;;;;;;;;2.45;61.52;100277.80;117341;1186;22921;-65
2021/12/28 00:41:47;;;;;;;;;;;;;;;2.39;61.63;100276.50;117343;1183;21996;-65
2021/12/28 00:44:15;;;;;;;;;;;;;;;2.41;61.53;100269.42;117308;1185;23831;-60
2021/12/28 00:46:44;;;;;;;;;;;;;;;2.43;61.64;100265.99;117395;1182;23470;-65
2021/12/28 00:49:12;;;;;;;;;;;;;;;2.46;61.60;100254.42;117370;1182;22961;-60
2021/12/28 00:51:41;;;;;;;;;;;;;;;2.45;61.51;100249.40;117419;1182;22979;-60
2021/12/28 00:54:10;;;;;;;;;;;;;;;2.44;61.52;100244.69;117411;1185;23416;-65
2021/12/28 00:56:38;;;;;;;;;;;;;;;2.45;61.61;100237.97;117411;1186;23439;-65
2021/12/28 00:59:06;;;;;;;;;;;;;;;2.47;61.50;100239.73;117400;1186;22992;-59
2021/12/28 01:01:34;;;;;;;;;;;;;;;2.49;61.39;100241.69;117429;1183;23434;-59
2021/12/28 01:04:03;;;;;;;;;;;;;;;2.52;61.55;100241.91;117412;1183;22091;-61
2021/12/28 01:06:34;;;;;;;;;;;;;;;2.52;61.56;100235.85;117420;1185;21896;-60
2021/12/28 01:09:02;;;;;;;;;;;;;;;2.51;61.50;100241.73;117400;1186;23425;-65
2021/12/28 01:11:30;;;;;;;;;;;;;;;2.47;61.39;100230.40;117383;1185;22635;-60
2021/12/28 01:13:58;;;;;;;;;;;;;;;2.45;61.53;100229.98;117393;1185;23447;-59
2021/12/28 01:16:27;;;;;;;;;;;;;;;2.45;61.46;100224.63;117397;1185;22977;-66
2021/12/28 01:18:56;;;;;;;;;;;;;;;2.44;61.45;100218.73;117353;1182;23627;-66
2021/12/28 01:21:24;;;;;;;;;;;;;;;2.43;61.77;100212.66;117377;1184;23474;-65
2021/12/28 01:23:52;;;;;;;;;;;;;;;2.43;61.55;100206.07;117414;1185;23448;-59
2021/12/28 01:26:42;;;;;;;;;;;;;;;2.43;61.63;100206.58;117364;1182;22479;-59
2021/12/28 01:29:10;;;;;;;;;;;;;;;2.43;61.56;100205.38;117397;1183;21987;-60
2021/12/28 01:31:38;;;;;;;;;;;;;;;2.43;61.44;100199.83;117333;1186;23531;-66
2021/12/28 01:34:07;;;;;;;;;;;;;;;2.44;61.56;100200.36;117405;1183;21844;-59
2021/12/28 01:36:35;;;;;;;;;;;;;;;2.45;61.71;100189.83;117385;1183;23563;-66
2021/12/28 01:39:04;;;;;;;;;;;;;;;2.45;61.53;100190.35;117327;1185;23427;-59
2021/12/28 01:41:33;;;;;;;;;;;;;;;2.44;61.47;100185.64;117312;1186;21924;-62
2021/12/28 01:44:03;;;;;;;;;;;;;;;2.44;61.55;100182.20;117393;1185;21872;-66
2021/12/28 01:46:31;;;;;;;;;;;;;;;2.41;61.49;100178.33;117376;1183;21914;-59
2021/12/28 01:48:59;;;;;;;;;;;;;;;2.38;61.56;100173.08;117445;1189;21872;-59
2021/12/28 01:51:28;;;;;;;;;;;;;;;2.37;61.69;100166.31;117437;1182;21832;-59
2021/12/28 01:53:57;;;;;;;;;;;;;;;2.37;61.61;100162.32;117410;1183;22937;-59
2021/12/28 01:56:32;;;;;;;;;;;;;;;2.36;61.62;100159.54;117500;1183;21851;-59
2021/12/28 01:59:02;;;;;;;;;;;;;;;2.35;61.69;100159.36;117381;1182;23804;-64
2021/12/28 02:01:31;;;;;;;;;;;;;;;2.34;61.49;100156.39;117401;1183;23446;-59
2021/12/28 02:03:59;;;;;;;;;;;;;;;2.34;61.66;100155.68;117217;1183;22689;-59
2021/12/28 02:06:28;;;;;;;;;;;;;;;2.32;61.49;100155.81;117350;1186;23462;-65
2021/12/28 02:08:56;;;;;;;;;;;;;;;2.30;61.64;100158.39;117314;1182;23399;-65
2021/12/28 02:11:26;;;;;;;;;;;;;;;2.29;61.59;100156.29;117429;1186;23370;-59
2021/12/28 02:13:54;;;;;;;;;;;;;;;2.30;61.74;100147.83;117395;1185;24155;-59
2021/12/28 02:16:23;;;;;;;;;;;;;;;2.30;61.66;100146.60;117514;1182;23748;-59
2021/12/28 02:18:51;;;;;;;;;;;;;;;2.30;61.73;100136.41;117412;1186;23451;-66
2021/12/28 02:21:19;;;;;;;;;;;;;;;2.32;61.86;100133.67;117422;1185;23448;-66
2021/12/28 02:23:47;;;;;;;;;;;;;;;2.32;61.55;100134.55;117424;1182;22642;-65
2021/12/28 02:26:15;;;;;;;;;;;;;;;2.29;61.62;100131.20;117416;1182;23446;-66
2021/12/28 02:28:45;;;;;;;;;;;;;;;2.29;61.61;100128.42;117398;1186;21850;-67
2021/12/28 02:31:12;;;;;;;;;;;;;;;2.30;61.69;100125.84;117350;1182;23550;-59
2021/12/28 02:33:41;;;;;;;;;;;;;;;2.32;61.57;100123.11;117407;1185;22917;-67
2021/12/28 02:36:09;;;;;;;;;;;;;;;2.32;61.70;100122.23;117399;1186;23439;-67
2021/12/28 02:38:37;;;;;;;;;;;;;;;2.35;61.59;100125.56;117385;1182;22917;-67
2021/12/28 02:41:07;;;;;;;;;;;;;;;2.35;61.58;100121.78;117368;1182;22825;-67
2021/12/28 02:43:37;;;;;;;;;;;;;;;2.37;61.79;100130.29;117309;1185;23435;-67
2021/12/28 02:46:08;;;;;;;;;;;;;;;2.41;61.66;100128.63;117380;1176;21835;-60
2021/12/28 02:48:37;;;;;;;;;;;;;;;2.41;61.61;100127.77;117370;1182;21843;-60
2021/12/28 02:51:07;;;;;;;;;;;;;;;2.42;61.73;100128.29;117442;1183;21880;-60
2021/12/28 02:53:34;;;;;;;;;;;;;;;2.42;61.70;100122.58;117382;1186;21964;-60
2021/12/28 02:56:03;;;;;;;;;;;;;;;2.44;61.64;100119.65;117482;1182;23450;-59
2021/12/28 02:58:33;;;;;;;;;;;;;;;2.43;61.62;100116.89;117422;1182;22841;-60
2021/12/28 03:01:09;;;;;;;;;;;;;;;2.45;61.70;100112.22;117304;1186;22903;-59
2021/12/28 03:03:38;;;;;;;;;;;;;;;2.45;61.80;100111.88;117360;1186;21828;-68
2021/12/28 03:06:06;;;;;;;;;;;;;;;2.42;61.78;100114.61;117424;1185;22927;-68
2021/12/28 03:08:36;;;;;;;;;;;;;;;2.43;61.89;100117.73;117402;1185;21843;-68
2021/12/28 03:11:04;;;;;;;;;;;;;;;2.46;61.84;100121.79;117353;1182;23446;-59
2021/12/28 03:13:34;;;;;;;;;;;;;;;2.48;61.78;100122.84;117406;1185;21854;-63
2021/12/28 03:16:03;;;;;;;;;;;;;;;2.52;61.80;100117.54;117411;1185;23425;-59
2021/12/28 03:18:31;;;;;;;;;;;;;;;2.56;61.79;100122.98;117408;1188;21862;-70
2021/12/28 03:21:00;;;;;;;;;;;;;;;2.57;61.68;100119.86;117378;1182;21851;-58
2021/12/28 03:23:28;;;;;;;;;;;;;;;2.57;61.74;100119.88;117352;1182;23436;-68
2021/12/28 03:25:56;;;;;;;;;;;;;;;2.56;61.78;100113.10;117368;1182;23560;-66
2021/12/28 03:28:25;;;;;;;;;;;;;;;2.57;61.68;100110.51;117339;1185;23428;-63
2021/12/28 03:30:55;;;;;;;;;;;;;;;2.59;61.87;100110.57;117428;1183;23535;-62
2021/12/28 03:33:25;;;;;;;;;;;;;;;2.62;61.86;100109.39;117386;1185;21844;-57
2021/12/28 03:35:53;;;;;;;;;;;;;;;2.63;61.86;100107.67;117424;1186;21850;-57
2021/12/28 03:38:22;;;;;;;;;;;;;;;2.63;61.80;100106.81;117396;1183;23526;-61
2021/12/28 03:40:50;;;;;;;;;;;;;;;2.64;61.84;100108.38;117333;1182;22278;-57
2021/12/28 03:43:18;;;;;;;;;;;;;;;2.64;61.69;100110.29;117301;1186;22962;-58
2021/12/28 03:45:46;;;;;;;;;;;;;;;2.68;61.80;100113.46;117350;1185;21852;-58
2021/12/28 03:48:14;;;;;;;;;;;;;;;2.72;61.82;100115.61;117424;1182;21872;-57
2021/12/28 03:50:43;;;;;;;;;;;;;;;2.75;61.72;100114.78;117433;1182;21841;-60
2021/12/28 03:53:11;;;;;;;;;;;;;;;2.79;61.68;100106.89;117375;1183;21838;-61
2021/12/28 03:55:39;;;;;;;;;;;;;;;2.79;61.68;100102.20;117419;1186;23507;-61
2021/12/28 03:58:07;;;;;;;;;;;;;;;2.75;61.65;100096.60;117411;1182;22982;-61
2021/12/28 04:00:37;;;;;;;;;;;;;;;2.76;61.60;100103.36;117475;1182;23468;-57
2021/12/28 04:03:06;;;;;;;;;;;;;;;2.76;61.69;100106.30;117387;1186;21845;-60
2021/12/28 04:05:35;;;;;;;;;;;;;;;2.78;61.70;100107.38;117405;1184;21814;-60
2021/12/28 04:08:03;;;;;;;;;;;;;;;2.77;61.64;100108.76;117368;1182;22633;-61
2021/12/28 04:10:38;;;;;;;;;;;;;;;2.80;61.68;100109.32;117348;1186;21843;-57
2021/12/28 04:13:09;;;;;;;;;;;;;;;2.78;61.75;100103.40;117294;1185;24147;-57
2021/12/28 04:15:37;;;;;;;;;;;;;;;2.76;61.90;100105.44;117439;1183;23460;-60
2021/12/28 04:18:05;;;;;;;;;;;;;;;2.75;61.82;100098.50;117410;1182;22989;-57
2021/12/28 04:20:33;;;;;;;;;;;;;;;2.75;61.68;100097.80;117359;1176;21842;-60
2021/12/28 04:23:02;;;;;;;;;;;;;;;2.80;61.57;100097.20;117376;1182;23605;-56
2021/12/28 04:25:31;;;;;;;;;;;;;;;2.79;61.59;100099.27;117320;1182;23465;-61
2021/12/28 04:27:59;;;;;;;;;;;;;;;2.77;61.52;100100.79;117408;1182;22918;-60
2021/12/28 04:30:28;;;;;;;;;;;;;;;2.78;61.73;100096.29;117426;1185;22121;-56
2021/12/28 04:32:56;;;;;;;;;;;;;;;2.77;61.62;100100.08;117357;1186;23455;-60
2021/12/28 04:35:26;;;;;;;;;;;;;;;2.78;61.69;100100.27;117388;1186;23459;-56
2021/12/28 04:37:54;;;;;;;;;;;;;;;2.76;61.65;100101.29;117314;1185;23416;-56
2021/12/28 04:40:22;;;;;;;;;;;;;;;2.74;61.73;100102.45;117357;1183;21841;-61
2021/12/28 04:42:52;;;;;;;;;;;;;;;2.73;61.67;100094.65;117347;1182;23563;-63
2021/12/28 04:45:20;;;;;;;;;;;;;;;2.73;61.67;100095.52;117541;1185;22712;-58
2021/12/28 04:47:48;;;;;;;;;;;;;;;2.73;61.74;100098.98;117361;1183;21895;-58
2021/12/28 04:50:16;;;;;;;;;;;;;;;2.74;61.72;100094.33;117399;1185;23544;-61
2021/12/28 04:52:45;;;;;;;;;;;;;;;2.74;61.71;100096.23;117346;1182;23440;-61
2021/12/28 04:55:16;;;;;;;;;;;;;;;2.72;61.71;100098.10;117447;1183;23666;-62
2021/12/28 04:57:45;;;;;;;;;;;;;;;2.70;61.67;100084.89;117412;1184;21832;-56
2021/12/28 05:00:17;;;;;;;;;;;;;;;2.68;61.68;100078.98;117381;1188;21849;-61
2021/12/28 05:02:45;;;;;;;;;;;;;;;2.66;61.69;100076.01;117350;1185;21970;-61
2021/12/28 05:05:13;;;;;;;;;;;;;;;2.67;61.65;100081.23;117453;1183;23426;-56
2021/12/28 05:07:44;;;;;;;;;;;;;;;2.67;61.75;100079.66;117395;1185;22898;-61
2021/12/28 05:10:12;;;;;;;;;;;;;;;2.65;61.63;100077.73;117269;1185;23551;-58
2021/12/28 05:12:40;;;;;;;;;;;;;;;2.67;61.62;100072.38;117398;1185;23429;-58
2021/12/28 05:15:09;;;;;;;;;;;;;;;2.68;61.77;100067.02;117368;1182;21848;-58
2021/12/28 05:17:39;;;;;;;;;;;;;;;2.68;61.71;100066.86;117418;1185;21844;-63
2021/12/28 05:20:08;;;;;;;;;;;;;;;2.69;61.73;100070.67;117524;1182;21841;-63
2021/12/28 05:22:36;;;;;;;;;;;;;;;2.69;61.72;100068.42;117412;1185;23438;-58
2021/12/28 05:25:05;;;;;;;;;;;;;;;2.71;61.76;100061.52;117446;1182;23425;-58
2021/12/28 05:27:36;;;;;;;;;;;;;;;2.73;61.71;100063.12;117346;1185;23628;-58
2021/12/28 05:30:04;;;;;;;;;;;;;;;2.72;61.58;100063.11;117368;1182;22969;-65
2021/12/28 05:32:33;;;;;;;;;;;;;;;2.71;61.65;100063.09;117359;1186;21939;-64
2021/12/28 05:35:02;;;;;;;;;;;;;;;2.73;61.65;100059.12;117365;1182;22926;-65
2021/12/28 05:37:30;;;;;;;;;;;;;;;2.74;61.86;100062.96;117446;1185;21843;-68
2021/12/28 05:39:58;;;;;;;;;;;;;;;2.78;61.83;100067.87;117371;1183;21857;-68
2021/12/28 05:42:27;;;;;;;;;;;;;;;2.82;61.95;100071.05;117385;1182;23454;-61
2021/12/28 05:44:55;;;;;;;;;;;;;;;2.87;62.06;100069.72;117369;1184;21851;-69
2021/12/28 05:47:23;;;;;;;;;;;;;;;2.90;61.97;100068.38;117262;1185;21885;-60
2021/12/28 05:49:51;;;;;;;;;;;;;;;2.92;61.94;100070.83;117347;1185;24137;-61
2021/12/28 05:52:20;;;;;;;;;;;;;;;2.98;61.85;100077.67;117315;1185;23435;-68
2021/12/28 05:54:48;;;;;;;;;;;;;;;3.01;61.77;100084.13;117234;1184;21995;-61
2021/12/28 05:57:16;;;;;;;;;;;;;;;3.01;61.85;100087.44;117360;1184;23428;-68
2021/12/28 05:59:45;;;;;;;;;;;;;;;3.01;61.89;100081.38;117437;1182;23531;-69
2021/12/28 06:02:13;;;;;;;;;;;;;;;3.01;61.82;100074.09;117359;1183;22516;-61
2021/12/28 06:04:41;;;;;;;;;;;;;;;3.01;61.83;100077.38;117376;1185;23435;-66
2021/12/28 06:07:09;;;;;;;;;;;;;;;3.02;61.87;100080.67;117342;1182;23525;-67
2021/12/28 06:09:37;;;;;;;;;;;;;;;3.03;61.88;100083.46;117355;1185;24175;-66
2021/12/28 06:12:06;;;;;;;;;;;;;;;3.04;61.66;100089.91;117324;1185;21841;-66
2021/12/28 06:14:35;;;;;;;;;;;;;;;3.00;61.79;100096.43;117367;1185;21855;-59
2021/12/28 06:17:03;;;;;;;;;;;;;;;2.97;61.58;100099.52;117359;1185;21973;-60
2021/12/28 06:19:31;;;;;;;;;;;;;;;2.95;61.61;100102.08;117355;1182;23531;-59
2021/12/28 06:21:59;;;;;;;;;;;;;;;2.96;61.53;100102.09;117278;1185;21840;-60
2021/12/28 06:24:30;;;;;;;;;;;;;;;2.92;61.52;100105.33;117332;1181;23545;-58
2021/12/28 06:26:58;;;;;;;;;;;;;;;2.92;61.68;100108.27;117305;1183;24148;-66
2021/12/28 06:29:26;;;;;;;;;;;;;;;2.92;61.76;100100.13;117352;1185;23531;-68
2021/12/28 06:31:54;;;;;;;;;;;;;;;2.95;61.59;100096.37;117415;1184;21855;-69
2021/12/28 06:34:22;;;;;;;;;;;;;;;2.97;61.72;100093.80;117357;1182;24147;-66
2021/12/28 06:36:50;;;;;;;;;;;;;;;2.96;61.79;100093.61;117332;1182;23428;-62
2021/12/28 06:39:18;;;;;;;;;;;;;;;2.99;61.85;100095.20;117311;1182;23887;-61
2021/12/28 06:41:47;;;;;;;;;;;;;;;3.00;61.87;100094.87;117397;1185;23451;-59
2021/12/28 06:44:15;;;;;;;;;;;;;;;3.00;61.79;100095.73;117323;1182;23430;-67
2021/12/28 06:46:43;;;;;;;;;;;;;;;3.01;61.79;100102.70;117325;1183;24127;-67
2021/12/28 06:49:11;;;;;;;;;;;;;;;3.03;61.88;100105.30;117295;1186;21866;-59
2021/12/28 06:51:40;;;;;;;;;;;;;;;3.03;61.82;100105.14;117115;1184;23534;-59
2021/12/28 06:54:09;;;;;;;;;;;;;;;3.03;61.78;100110.86;117368;1185;24146;-61
2021/12/28 06:56:37;;;;;;;;;;;;;;;3.03;61.86;100111.89;117374;1182;23259;-60
2021/12/28 06:59:05;;;;;;;;;;;;;;;3.04;61.86;100112.96;117359;1182;25176;-61
2021/12/28 07:01:33;;;;;;;;;;;;;;;3.06;61.77;100113.51;117407;1182;24600;-68
2021/12/28 07:04:02;;;;;;;;;;;;;;;3.03;61.80;100117.44;117380;1182;21848;-69
2021/12/28 07:06:30;;;;;;;;;;;;;;;3.01;61.81;100106.15;117391;1185;22918;-61
2021/12/28 07:08:59;;;;;;;;;;;;;;;3.03;61.90;100097.52;117432;1182;24145;-69
2021/12/28 07:11:27;;;;;;;;;;;;;;;3.02;61.83;100083.64;117405;1185;24146;-60
2021/12/28 07:13:58;;;;;;;;;;;;;;;3.01;61.73;100081.71;117325;1186;21907;-69
2021/12/28 07:16:26;;;;;;;;;;;;;;;2.98;61.77;100070.58;117433;1182;23801;-60
2021/12/28 07:18:57;;;;;;;;;;;;;;;2.98;61.81;100071.45;117376;1182;22934;-69
2021/12/28 07:21:34;;;;;;;;;;;;;;;2.98;61.81;100073.70;117211;1188;21850;-69
2021/12/28 07:24:03;;;;;;;;;;;;;;;3.01;61.81;100077.03;117340;1182;23519;-69
2021/12/28 07:26:32;;;;;;;;;;;;;;;3.02;61.79;100079.98;117409;1182;22909;-59
2021/12/28 07:29:01;;;;;;;;;;;;;;;3.04;61.64;100079.67;117389;1185;23006;-58
2021/12/28 07:31:30;;;;;;;;;;;;;;;3.03;61.59;100071.34;117377;1182;21851;-66
2021/12/28 07:33:58;;;;;;;;;;;;;;;2.99;61.58;100062.79;117362;1182;23452;-60
2021/12/28 07:36:26;;;;;;;;;;;;;;;2.95;61.66;100061.01;117385;1182;22605;-69
2021/12/28 07:38:54;;;;;;;;;;;;;;;2.92;61.74;100060.95;117413;1182;23461;-60
2021/12/28 07:41:22;;;;;;;;;;;;;;;2.90;61.65;100059.89;117363;1183;21844;-59
2021/12/28 07:43:50;;;;;;;;;;;;;;;2.95;61.60;100059.27;117397;1186;22026;-60
2021/12/28 07:46:18;;;;;;;;;;;;;;;2.98;61.62;100057.92;117518;1185;22936;-67
2021/12/28 07:48:46;;;;;;;;;;;;;;;3.01;61.67;100056.92;117346;1185;21850;-67
2021/12/28 07:51:14;;;;;;;;;;;;;;;3.04;61.66;100059.73;118053;1185;21830;-60
2021/12/28 07:53:43;;;;;;;;;;;;;;;3.03;61.62;100067.17;117382;1182;23573;-67
2021/12/28 07:56:11;;;;;;;;;;;;;;;3.02;61.69;100076.17;117363;1185;22601;-59
2021/12/28 07:58:39;;;;;;;;;;;;;;;3.05;61.77;100083.67;117284;1183;23439;-60
2021/12/28 08:01:07;;;;;;;;;;;;;;;3.05;61.70;100091.81;117405;1183;22419;-68
2021/12/28 08:03:36;;;;;;;;;;;;;;;2.99;61.59;100083.95;117394;1185;23638;-60
2021/12/28 08:06:04;;;;;;;;;;;;;;;2.93;61.67;100079.01;117421;1182;23424;-69
2021/12/28 08:08:35;;;;;;;;;;;;;;;2.92;61.56;100079.33;117388;1185;21880;-60
2021/12/28 08:11:03;;;;;;;;;;;;;;;2.95;61.81;100076.59;117331;1185;21845;-60
2021/12/28 08:13:31;;;;;;;;;;;;;;;2.96;61.49;100071.93;117350;1185;23452;-60
2021/12/28 08:15:59;;;;;;;;;;;;;;;2.95;61.47;100067.08;117368;1182;23428;-60
2021/12/28 08:18:28;;;;;;;;;;;;;;;2.93;61.57;100067.20;117306;1186;23484;-66
2021/12/28 08:20:57;;;;;;;;;;;;;;;2.90;61.59;100063.19;117408;1182;21832;-59
2021/12/28 08:23:25;;;;;;;;;;;;;;;2.86;61.53;100062.61;117360;1184;21972;-59
2021/12/28 08:25:53;;;;;;;;;;;;;;;2.81;61.40;100061.51;117406;1183;23429;-65
2021/12/28 08:28:23;;;;;;;;;;;;;;;2.76;61.41;100060.05;117394;1183;22988;-66
2021/12/28 08:30:51;;;;;;;;;;;;;;;2.69;61.46;100065.14;117405;1183;21841;-59
2021/12/28 08:33:19;;;;;;;;;;;;;;;2.66;61.36;100069.77;117379;1182;23897;-59
2021/12/28 08:35:48;;;;;;;;;;;;;;;2.62;61.38;100072.31;117387;1186;23426;-66
2021/12/28 08:38:16;;;;;;;;;;;;;;;2.59;61.40;100069.84;117395;1182;21841;-66
2021/12/28 08:40:44;;;;;;;;;;;;;;;2.55;61.48;100064.58;117472;1185;21852;-59
2021/12/28 08:43:13;;;;;;;;;;;;;;;2.55;61.32;100066.31;117373;1185;23643;-59
2021/12/28 08:45:41;;;;;;;;;;;;;;;2.56;61.40;100067.21;117402;1185;23438;-66
2021/12/28 08:48:11;;;;;;;;;;;;;;;2.55;61.37;100064.77;117351;1185;22964;-66
2021/12/28 08:50:40;;;;;;;;;;;;;;;2.52;61.34;100067.14;117329;1185;21832;-59
2021/12/28 08:53:10;;;;;;;;;;;;;;;2.52;61.51;100066.11;117386;1182;21863;-65
2021/12/28 08:55:38;;;;;;;;;;;;;;;2.54;61.61;100064.05;117386;1185;23429;-65
2021/12/28 08:58:09;;;;;;;;;;;;;;;2.56;61.51;100067.20;117357;1185;21840;-65
2021/12/28 09:00:37;;;;;;;;;;;;;;;2.57;61.51;100069.29;117423;1181;21970;-59
2021/12/28 09:03:06;;;;;;;;;;;;;;;2.59;61.52;100072.78;117296;1186;22099;-66
2021/12/28 09:05:37;;;;;;;;;;;;;;;2.58;61.46;100077.63;117419;1185;21847;-59
2021/12/28 09:08:08;;;;;;;;;;;;;;;2.57;61.55;100076.75;117461;1183;21927;-60
2021/12/28 09:10:36;;;;;;;;;;;;;;;2.57;61.46;100068.08;117391;1183;22918;-60
2021/12/28 09:13:07;;;;;;;;;;;;;;;2.62;61.61;100061.75;117335;1186;23436;-66
2021/12/28 09:15:35;;;;;;;;;;;;;;;2.66;61.72;100064.40;117376;1185;23540;-67
2021/12/28 09:18:03;;;;;;;;;;;;;;;2.63;61.41;100068.02;117410;1185;21840;-67
2021/12/28 09:20:32;;;;;;;;;;;;;;;2.59;61.48;100072.09;117405;1185;23440;-61
2021/12/28 09:23:07;;;;;;;;;;;;;;;2.54;61.51;100074.10;117378;1185;22305;-67
2021/12/28 09:25:36;;;;;;;;;;;;;;;2.48;61.34;100072.10;117406;1182;21853;-67
2021/12/28 09:28:04;;;;;;;;;;;;;;;2.46;61.30;100068.60;117359;1183;21848;-67
2021/12/28 09:30:32;;;;;;;;;;;;;;;2.43;61.21;100065.62;117396;1185;21847;-62
2021/12/28 09:33:01;;;;;;;;;;;;;;;2.39;61.33;100065.91;117377;1184;21865;-67
2021/12/28 09:35:29;;;;;;;;;;;;;;;2.36;61.22;100066.02;117492;1183;23436;-64
2021/12/28 09:37:57;;;;;;;;;;;;;;;2.33;61.29;100068.40;117407;1182;21833;-64
2021/12/28 09:40:28;;;;;;;;;;;;;;;2.29;61.29;100072.13;117364;1185;21840;-64
2021/12/28 09:42:56;;;;;;;;;;;;;;;2.22;61.32;100080.69;117359;1182;21869;-60
2021/12/28 09:45:24;;;;;;;;;;;;;;;2.18;61.25;100084.09;117377;1185;21841;-60
2021/12/28 09:47:53;;;;;;;;;;;;;;;2.19;61.30;100078.91;117324;1183;23464;-64
2021/12/28 09:50:21;;;;;;;;;;;;;;;2.21;61.32;100076.51;117380;1183;24765;-60
2021/12/28 09:52:52;;;;;;;;;;;;;;;2.21;61.40;100076.69;117304;1182;22064;-64
2021/12/28 09:55:21;;;;;;;;;;;;;;;2.19;61.35;100078.73;117429;1183;21901;-65
2021/12/28 09:57:50;;;;;;;;;;;;;;;2.18;61.40;100078.89;117350;1182;22925;-61
2021/12/28 10:00:19;;;;;;;;;;;;;;;2.17;61.31;100080.60;117441;1182;23621;-61
2021/12/28 10:03:07;;;;;;;;;;;;;;;2.17;61.26;100075.23;117410;1185;23448;-61
2021/12/28 10:05:35;;;;;;;;;;;;;;;2.12;61.21;100072.38;117397;1186;21844;-65
2021/12/28 10:08:05;;;;;;;;;;;;;;;2.09;61.35;100070.09;117392;1185;23426;-61
2021/12/28 10:10:43;;;;;;;;;;;;;;;2.10;61.12;100073.04;117402;1185;23565;-64
2021/12/28 10:13:19;;;;;;;;;;;;;;;2.09;61.13;100069.38;117439;1182;23547;-61
2021/12/28 10:15:48;;;;;;;;;;;;;;;2.08;61.11;100065.22;117359;1184;22812;-61
2021/12/28 10:18:17;;;;;;;;;;;;;;;2.09;61.22;100067.66;117382;1185;21974;-61
2021/12/28 10:20:47;;;;;;;;;;;;;;;2.05;61.33;100073.29;117336;1185;23456;-66
2021/12/28 10:23:15;;;;;;;;;;;;;;;2.03;61.39;100074.48;117398;1185;22898;-64
2021/12/28 10:25:44;;;;;;;;;;;;;;;2.07;61.40;100068.48;117364;1185;21884;-64
2021/12/28 10:28:16;;;;;;;;;;;;;;;2.08;61.34;100072.49;117393;1183;21850;-62
2021/12/28 10:30:46;;;;;;;;;;;;;;;2.09;61.27;100068.34;117347;1185;22237;-62
2021/12/28 10:33:16;;;;;;;;;;;;;;;2.05;61.36;100064.48;117219;1186;21850;-65
2021/12/28 10:35:45;;;;;;;;;;;;;;;2.06;61.05;100064.49;117405;1184;21897;-64
2021/12/28 10:38:18;;;;;;;;;;;;;;;2.06;61.13;100066.55;117341;1185;21845;-65
2021/12/28 10:40:47;;;;;;;;;;;;;;;2.02;61.19;100067.53;117434;1181;21843;-62
2021/12/28 10:43:16;;;;;;;;;;;;;;;2.02;61.27;100063.21;117359;1185;21845;-62
2021/12/28 10:46:01;;;;;;;;;;;;;;;2.04;61.57;100067.73;117446;1185;22900;-62
2021/12/28 10:48:32;;;;;;;;;;;;;;;2.04;61.43;100072.24;117398;1185;23435;-62
2021/12/28 10:51:02;;;;;;;;;;;;;;;2.04;61.23;100070.33;117396;1182;23446;-61
2021/12/28 10:53:37;;;;;;;;;;;;;;;2.01;61.68;100077.20;117361;1182;22898;-62
2021/12/28 10:56:07;;;;;;;;;;;;;;;2.01;61.47;100071.49;117419;1185;23452;-65
2021/12/28 10:58:39;;;;;;;;;;;;;;;2.03;61.18;100061.14;117457;1182;21909;-66
2021/12/28 11:01:18;;;;;;;;;;;;;;;2.08;61.28;100057.42;117358;1185;22177;-64
2021/12/28 11:03:47;;;;;;;;;;;;;;;2.02;61.29;100060.44;117370;1182;21836;-65
2021/12/28 11:06:35;;;;;;;;;;;;;;;2.07;61.03;100063.29;117474;1184;23433;-63
2021/12/28 11:09:03;;;;;;;;;;;;;;;2.08;61.17;100063.82;117382;1182;23503;-63
2021/12/28 11:11:31;;;;;;;;;;;;;;;2.08;61.20;100065.04;117393;1182;23429;-63
2021/12/28 11:14:00;;;;;;;;;;;;;;;2.07;61.29;100060.86;117431;1185;23453;-63
2021/12/28 11:16:29;;;;;;;;;;;;;;;2.01;61.07;100061.30;117390;1183;22474;-64
2021/12/28 11:19:37;;;;;;;;;;;;;;;1.98;60.99;100051.71;117353;1183;22054;-64
2021/12/28 11:22:09;;;;;;;;;;;;;;;1.97;61.11;100050.50;117343;1185;23448;-64
2021/12/28 11:24:39;;;;;;;;;;;;;;;1.96;61.28;100048.22;117399;1185;22909;-63
2021/12/28 11:27:10;;;;;;;;;;;;;;;1.98;61.30;100052.06;117314;1183;22889;-64
2021/12/28 11:29:56;;;;;;;;;;;;;;;1.99;61.27;100057.10;117415;1183;21840;-63
2021/12/28 11:32:25;;;;;;;;;;;;;;;2.00;61.27;100060.22;117323;1183;23446;-63
2021/12/28 11:34:53;;;;;;;;;;;;;;;1.97;61.33;100061.55;117403;1182;23451;-63
2021/12/28 11:37:25;;;;;;;;;;;;;;;1.91;61.43;100060.59;117353;1182;22916;-64
2021/12/28 11:39:54;;;;;;;;;;;;;;;1.89;61.65;100059.35;117396;1188;23628;-65
2021/12/28 11:42:22;;;;;;;;;;;;;;;1.93;61.60;100056.83;117359;1186;22921;-64
2021/12/28 11:44:51;;;;;;;;;;;;;;;1.94;61.72;100060.14;117424;1185;23451;-65
2021/12/28 11:47:20;;;;;;;;;;;;;;;1.92;61.58;100061.32;117379;1185;22607;-63
2021/12/28 11:49:49;;;;;;;;;;;;;;;1.92;61.78;100058.37;117381;1182;21845;-63
2021/12/28 11:52:18;;;;;;;;;;;;;;;1.96;61.42;100056.53;117463;1185;22792;-63
2021/12/28 11:54:48;;;;;;;;;;;;;;;1.96;61.29;100059.29;117458;1185;21850;-64
2021/12/28 11:57:20;;;;;;;;;;;;;;;1.95;61.49;100062.92;117368;1184;23566;-63
2021/12/28 11:59:52;;;;;;;;;;;;;;;1.92;61.34;100063.20;117453;1185;23420;-63
2021/12/28 12:02:20;;;;;;;;;;;;;;;1.87;61.74;100066.41;117333;1185;21842;-63
2021/12/28 12:04:49;;;;;;;;;;;;;;;1.88;61.64;100067.80;117107;1186;22180;-63
2021/12/28 12:07:19;;;;;;;;;;;;;;;1.89;61.57;100066.61;117392;1184;23519;-62
2021/12/28 12:09:54;;;;;;;;;;;;;;;1.93;61.64;100066.70;117619;1185;22936;-61
2021/12/28 12:12:44;;;;;;;;;;;;;;;1.93;61.41;100070.66;117597;1185;21853;-63
2021/12/28 12:15:16;;;;;;;;;;;;;;;1.92;61.38;100073.94;117395;1184;21852;-61
2021/12/28 12:17:44;;;;;;;;;;;;;;;1.91;61.37;100074.27;117437;1182;23439;-61
2021/12/28 12:20:17;;;;;;;;;;;;;;;1.87;61.13;100075.75;117477;1185;21852;-63
2021/12/28 12:22:48;;;;;;;;;;;;;;;1.82;61.31;100075.65;117363;1184;23360;-60
2021/12/28 12:25:19;;;;;;;;;;;;;;;1.77;61.37;100070.72;117357;1182;22812;-63
2021/12/28 12:27:51;;;;;;;;;;;;;;;1.75;61.38;100066.38;117415;1181;23429;-64
2021/12/28 12:30:19;;;;;;;;;;;;;;;1.76;61.29;100062.40;117348;1183;22917;-59
2021/12/28 12:33:00;;;;;;;;;;;;;;;1.81;61.61;100065.26;117312;1185;21843;-65
2021/12/28 12:35:30;;;;;;;;;;;;;;;1.84;61.50;100063.06;117372;1184;21858;-60
2021/12/28 12:37:59;;;;;;;;;;;;;;;1.86;61.51;100068.13;117410;1185;23426;-60
2021/12/28 12:40:47;;;;;;;;;;;;;;;1.90;61.58;100067.85;117359;1184;22936;-66
2021/12/28 12:43:16;;;;;;;;;;;;;;;1.99;61.45;100067.83;117402;1184;21924;-60
2021/12/28 12:45:51;;;;;;;;;;;;;;;2.03;61.44;100067.04;117433;1182;21842;-66
2021/12/28 12:48:35;;;;;;;;;;;;;;;2.04;61.33;100058.91;117400;1183;23496;-66
2021/12/28 12:51:18;;;;;;;;;;;;;;;2.02;61.39;100058.02;117414;1184;21849;-66